createdAt,value
2022-07-29T00:01:19.499Z,0.50
2022-07-29T00:03:47.998Z,0.50
2022-07-29T00:06:16.340Z,0.40
2022-07-29T00:08:44.378Z,0.50
2022-07-29T00:11:13.750Z,0.38
2022-07-29T00:13:41.881Z,0.40
2022-07-29T00:16:09.962Z,0.47
2022-07-29T00:18:37.962Z,0.38
2022-07-29T00:21:05.887Z,0.55
2022-07-29T00:23:36.839Z,0.30
2022-07-29T00:26:05.098Z,0.50
2022-07-29T00:28:34.731Z,0.32
2022-07-29T00:31:02.727Z,0.40
2022-07-29T00:33:31.205Z,0.68
2022-07-29T00:35:58.153Z,0.50
2022-07-29T00:38:26.122Z,0.30
2022-07-29T00:40:54.161Z,0.40
2022-07-29T00:43:22.137Z,0.22
2022-07-29T00:45:51.488Z,0.30
2022-07-29T00:48:19.557Z,0.88
2022-07-29T00:50:47.622Z,0.40
2022-07-29T00:53:15.561Z,0.40
2022-07-29T00:55:43.509Z,0.40
2022-07-29T00:58:14.201Z,0.70
2022-07-29T01:00:42.739Z,0.35
2022-07-29T01:03:15.225Z,0.38
2022-07-29T01:05:50.710Z,0.22
2022-07-29T01:08:20.728Z,0.30
2022-07-29T01:10:49.182Z,0.20
2022-07-29T01:13:18.117Z,0.35
2022-07-29T01:15:49.986Z,0.30
2022-07-29T01:18:26.254Z,0.20
2022-07-29T01:21:17.933Z,0.30
2022-07-29T01:24:01.474Z,0.75
2022-07-29T01:26:47.683Z,0.30
2022-07-29T01:29:35.801Z,0.40
2022-07-29T01:32:21.547Z,0.40
2022-07-29T01:35:00.679Z,0.45
2022-07-29T01:37:34.959Z,0.30
2022-07-29T01:40:06.724Z,0.30
2022-07-29T01:42:38.923Z,0.40
2022-07-29T01:45:16.484Z,0.50
2022-07-29T01:47:47.417Z,0.50
2022-07-29T01:50:19.744Z,0.40
2022-07-29T01:52:58.172Z,0.40
2022-07-29T01:55:30.838Z,0.40
2022-07-29T01:58:00.993Z,0.60
2022-07-29T02:00:33.546Z,0.40
2022-07-29T02:03:04.793Z,0.65
2022-07-29T02:05:34.729Z,0.50
2022-07-29T02:08:04.123Z,0.70
2022-07-29T02:10:35.135Z,0.63
2022-07-29T02:13:06.617Z,0.45
2022-07-29T02:15:37.634Z,0.50
2022-07-29T02:18:10.415Z,0.50
2022-07-29T02:20:39.878Z,0.50
2022-07-29T02:23:11.427Z,0.40
2022-07-29T02:25:39.827Z,0.20
2022-07-29T02:28:09.647Z,0.40
2022-07-29T02:30:44.080Z,0.50
2022-07-29T02:33:16.330Z,0.50
2022-07-29T02:35:46.877Z,0.40
2022-07-29T02:38:33.813Z,0.50
2022-07-29T02:41:05.382Z,0.40
2022-07-29T02:43:34.916Z,0.60
2022-07-29T02:46:28.014Z,0.50
2022-07-29T02:49:01.713Z,0.50
2022-07-29T02:51:43.332Z,0.70
2022-07-29T02:54:17.728Z,0.55
2022-07-29T02:56:47.958Z,0.40
2022-07-29T02:59:20.273Z,0.65
2022-07-29T03:01:51.029Z,0.60
2022-07-29T03:04:21.706Z,0.70
2022-07-29T03:06:52.855Z,0.40
2022-07-29T03:09:21.917Z,0.65
2022-07-29T03:11:51.039Z,0.30
2022-07-29T03:14:21.674Z,0.63
2022-07-29T03:16:52.914Z,0.70
2022-07-29T03:19:22.560Z,0.60
2022-07-29T03:21:51.119Z,0.43
2022-07-29T03:24:30.706Z,0.63
2022-07-29T03:26:59.346Z,0.70
2022-07-29T03:29:33.461Z,0.40
2022-07-29T03:32:07.259Z,0.50
2022-07-29T03:34:36.985Z,0.75
2022-07-29T03:37:05.284Z,0.80
2022-07-29T03:39:38.821Z,0.60
2022-07-29T03:42:08.929Z,0.50
2022-07-29T03:44:38.315Z,0.50
2022-07-29T03:47:10.295Z,0.57
2022-07-29T03:49:39.857Z,0.35
2022-07-29T03:52:08.364Z,0.47
2022-07-29T03:54:36.458Z,0.50
2022-07-29T03:57:05.648Z,0.50
2022-07-29T03:59:35.993Z,0.70
2022-07-29T04:02:05.525Z,0.52
2022-07-29T04:04:37.122Z,0.50
2022-07-29T04:07:05.751Z,0.40
2022-07-29T04:09:33.894Z,1.05
2022-07-29T04:12:04.073Z,0.40
2022-07-29T04:14:33.268Z,0.80
2022-07-29T04:17:01.631Z,0.60
2022-07-29T04:19:29.732Z,0.50
2022-07-29T04:21:59.436Z,0.70
2022-07-29T04:24:27.803Z,0.88
2022-07-29T04:26:56.199Z,0.50
2022-07-29T04:29:24.180Z,1.50
2022-07-29T04:31:52.245Z,1.60
2022-07-29T04:34:21.147Z,0.65
2022-07-29T04:36:49.279Z,0.80
2022-07-29T04:39:23.005Z,0.73
2022-07-29T04:41:52.527Z,0.70
2022-07-29T04:44:28.802Z,1.02
2022-07-29T04:46:58.111Z,0.50
2022-07-29T04:49:26.539Z,0.60
2022-07-29T04:51:54.628Z,0.50
2022-07-29T04:54:24.291Z,0.60
2022-07-29T04:56:53.525Z,0.73
2022-07-29T04:59:21.541Z,0.70
2022-07-29T05:01:49.658Z,0.50
2022-07-29T05:04:17.954Z,0.65
2022-07-29T05:06:46.149Z,0.82
2022-07-29T05:09:14.051Z,0.70
2022-07-29T05:11:43.523Z,0.77
2022-07-29T05:14:11.464Z,0.47
2022-07-29T05:16:41.062Z,1.27
2022-07-29T05:19:13.829Z,0.50
2022-07-29T05:21:42.284Z,0.82
2022-07-29T05:24:10.354Z,0.40
2022-07-29T05:26:38.260Z,0.60
2022-07-29T05:29:07.697Z,0.55
2022-07-29T05:31:55.679Z,0.40
2022-07-29T05:34:23.617Z,0.50
2022-07-29T05:36:51.948Z,0.45
2022-07-29T05:39:19.922Z,0.50
2022-07-29T05:41:51.839Z,0.47
2022-07-29T05:44:21.561Z,0.57
2022-07-29T05:46:53.370Z,0.70
2022-07-29T05:49:27.345Z,0.30
2022-07-29T05:51:55.731Z,0.32
2022-07-29T05:54:23.717Z,0.35
2022-07-29T05:56:51.881Z,0.40
2022-07-29T05:59:21.180Z,0.43
2022-07-29T06:01:49.343Z,0.30
2022-07-29T06:04:17.809Z,0.30
2022-07-29T06:06:46.397Z,0.30
2022-07-29T06:09:14.879Z,0.38
2022-07-29T06:11:43.179Z,0.30
2022-07-29T06:14:11.176Z,0.50
2022-07-29T06:16:40.738Z,0.30
2022-07-29T06:19:08.820Z,0.40
2022-07-29T06:21:38.593Z,0.25
2022-07-29T06:24:10.404Z,0.30
2022-07-29T06:26:40.015Z,0.22
2022-07-29T06:29:08.413Z,0.40
2022-07-29T06:31:36.513Z,0.57
2022-07-29T06:34:05.958Z,0.40
2022-07-29T06:36:37.911Z,0.47
2022-07-29T06:39:08.416Z,0.30
2022-07-29T06:41:36.969Z,0.30
2022-07-29T06:44:10.970Z,0.25
2022-07-29T06:46:39.017Z,0.30
2022-07-29T06:49:08.696Z,0.20
2022-07-29T06:51:37.021Z,0.30
2022-07-29T06:54:06.586Z,0.30
2022-07-29T06:56:38.668Z,0.30
2022-07-29T06:59:09.880Z,0.30
2022-07-29T07:01:39.021Z,0.20
2022-07-29T07:04:09.758Z,0.30
2022-07-29T07:06:38.745Z,0.30
2022-07-29T07:09:06.845Z,0.30
2022-07-29T07:11:35.145Z,0.22
2022-07-29T07:14:04.231Z,0.40
2022-07-29T07:16:33.290Z,0.30
2022-07-29T07:19:01.526Z,0.25
2022-07-29T07:21:31.430Z,0.30
2022-07-29T07:24:00.043Z,0.20
2022-07-29T07:26:28.116Z,0.20
2022-07-29T07:28:56.142Z,0.30
2022-07-29T07:31:24.167Z,0.30
2022-07-29T07:33:52.695Z,0.38
2022-07-29T07:36:20.779Z,0.20
2022-07-29T07:38:50.167Z,0.22
2022-07-29T07:41:18.173Z,0.30
2022-07-29T07:43:46.155Z,0.25
2022-07-29T07:46:14.184Z,0.30
2022-07-29T07:48:42.326Z,0.43
2022-07-29T07:51:10.440Z,0.20
2022-07-29T07:53:38.539Z,0.35
2022-07-29T07:56:10.906Z,0.30
2022-07-29T07:58:39.564Z,0.20
2022-07-29T08:01:07.757Z,0.40
2022-07-29T08:03:35.774Z,0.30
2022-07-29T08:06:04.831Z,0.38
2022-07-29T08:08:32.954Z,0.30
2022-07-29T08:11:08.304Z,0.38
2022-07-29T08:13:39.465Z,0.30
2022-07-29T08:16:13.914Z,0.30
2022-07-29T08:18:43.197Z,0.40
2022-07-29T08:21:11.349Z,0.50
2022-07-29T08:23:51.446Z,0.50
2022-07-29T08:26:23.665Z,0.40
2022-07-29T08:28:53.021Z,0.25
2022-07-29T08:31:21.011Z,0.55
2022-07-29T08:33:48.957Z,0.30
2022-07-29T08:36:16.932Z,0.40
2022-07-29T08:38:44.873Z,0.20
2022-07-29T08:41:12.959Z,0.30
2022-07-29T08:43:42.819Z,0.30
2022-07-29T08:46:12.505Z,0.30
2022-07-29T08:48:41.311Z,0.20
2022-07-29T08:51:10.488Z,0.20
2022-07-29T08:53:39.128Z,0.30
2022-07-29T08:56:07.951Z,0.30
2022-07-29T08:58:37.163Z,0.40
2022-07-29T09:01:07.672Z,0.50
2022-07-29T09:03:42.506Z,0.40
2022-07-29T09:06:10.773Z,0.40
2022-07-29T09:08:38.785Z,0.20
2022-07-29T09:11:08.384Z,0.30
2022-07-29T09:13:36.940Z,0.47
2022-07-29T09:16:09.386Z,0.32
2022-07-29T09:18:39.524Z,0.50
2022-07-29T09:21:28.466Z,0.50
2022-07-29T09:24:08.836Z,0.40
2022-07-29T09:26:38.422Z,0.30
2022-07-29T09:29:13.604Z,0.30
2022-07-29T09:31:43.631Z,0.50
2022-07-29T09:34:13.048Z,0.30
2022-07-29T09:36:44.586Z,0.40
2022-07-29T09:39:13.041Z,0.20
2022-07-29T09:41:48.718Z,0.28
2022-07-29T09:44:16.826Z,0.40
2022-07-29T09:46:59.146Z,0.40
2022-07-29T09:49:27.775Z,0.30
2022-07-29T09:52:06.496Z,0.20
2022-07-29T09:54:37.821Z,0.20
2022-07-29T09:57:07.607Z,0.22
2022-07-29T09:59:35.734Z,0.30
2022-07-29T10:02:13.128Z,0.30
2022-07-29T10:04:41.877Z,0.45
2022-07-29T10:07:11.614Z,0.30
2022-07-29T10:09:39.662Z,0.30
2022-07-29T10:12:10.145Z,0.30
2022-07-29T10:14:39.213Z,0.40
2022-07-29T10:17:08.485Z,0.30
2022-07-29T10:19:37.989Z,0.40
2022-07-29T10:22:08.334Z,0.30
2022-07-29T10:24:39.389Z,0.30
2022-07-29T10:27:10.420Z,0.10
2022-07-29T10:29:38.591Z,0.30
2022-07-29T10:32:37.083Z,0.20
2022-07-29T10:35:21.075Z,0.28
2022-07-29T10:38:06.403Z,0.57
2022-07-29T10:41:06.750Z,0.73
2022-07-29T10:43:43.046Z,0.40
2022-07-29T10:46:13.652Z,0.30
2022-07-29T10:49:11.783Z,0.30
2022-07-29T10:51:58.524Z,0.30
2022-07-29T10:54:52.021Z,0.40
2022-07-29T10:57:53.100Z,0.20
2022-07-29T11:00:34.682Z,0.20
2022-07-29T11:03:04.566Z,0.20
2022-07-29T11:05:54.652Z,0.30
2022-07-29T11:08:28.273Z,0.30
2022-07-29T11:11:36.624Z,0.40
2022-07-29T11:14:10.334Z,0.30
2022-07-29T11:17:06.452Z,0.35
2022-07-29T11:19:36.279Z,0.32
2022-07-29T11:22:04.760Z,0.25
2022-07-29T11:24:35.262Z,0.30
2022-07-29T11:30:08.679Z,0.30
2022-07-29T11:32:39.877Z,0.70
2022-07-29T11:35:37.454Z,0.30
2022-07-29T11:38:29.363Z,0.30
2022-07-29T11:41:22.546Z,0.40
2022-07-29T11:43:53.210Z,0.50
2022-07-29T11:46:48.068Z,0.40
2022-07-29T11:49:31.641Z,0.30
2022-07-29T11:52:10.970Z,0.30
2022-07-29T11:54:57.996Z,0.70
2022-07-29T11:57:36.346Z,0.55
2022-07-29T12:00:12.242Z,0.40
2022-07-29T12:02:48.181Z,0.30
2022-07-29T12:05:36.558Z,0.52
2022-07-29T12:07:01.386Z,0.50
2022-07-29T12:08:12.755Z,0.30
2022-07-29T12:10:44.159Z,0.88
2022-07-29T12:13:12.596Z,0.45
2022-07-29T12:15:47.104Z,0.60
2022-07-29T12:18:24.202Z,0.60
2022-07-29T12:21:03.361Z,0.40
2022-07-29T12:23:34.417Z,0.52
2022-07-29T12:26:07.505Z,0.50
2022-07-29T12:28:40.354Z,0.50
2022-07-29T12:31:15.030Z,0.50
2022-07-29T12:34:04.514Z,1.00
2022-07-29T12:36:33.001Z,0.70
2022-07-29T12:39:01.179Z,0.68
2022-07-29T12:41:30.177Z,0.60
2022-07-29T12:43:58.470Z,1.00
2022-07-29T12:46:26.593Z,0.73
2022-07-29T12:48:57.508Z,0.50
2022-07-29T12:51:32.975Z,0.80
2022-07-29T12:54:07.904Z,0.68
2022-07-29T12:56:44.729Z,0.32
2022-07-29T12:59:15.221Z,0.35
2022-07-29T13:01:43.335Z,0.60
2022-07-29T13:04:11.551Z,0.38
2022-07-29T13:06:42.724Z,0.45
2022-07-29T13:09:15.709Z,0.43
2022-07-29T13:11:48.611Z,0.40
2022-07-29T13:14:32.635Z,0.40
2022-07-29T13:17:06.782Z,0.70
2022-07-29T13:19:37.441Z,0.32
2022-07-29T13:22:07.341Z,0.57
2022-07-29T13:24:35.736Z,0.57
2022-07-29T13:27:05.708Z,0.70
2022-07-29T13:29:34.159Z,0.50
2022-07-29T13:32:02.204Z,0.50
2022-07-29T13:34:30.129Z,0.50
2022-07-29T13:36:58.161Z,0.55
2022-07-29T13:39:27.481Z,0.40
2022-07-29T13:41:56.316Z,0.47
2022-07-29T13:44:25.785Z,0.73
2022-07-29T13:46:53.860Z,0.40
2022-07-29T13:49:21.969Z,0.50
2022-07-29T13:51:50.897Z,0.30
2022-07-29T13:54:19.281Z,0.55
2022-07-29T13:56:48.722Z,0.30
2022-07-29T13:59:16.756Z,0.60
2022-07-29T14:01:45.528Z,0.30
2022-07-29T14:04:14.858Z,0.35
2022-07-29T14:06:43.230Z,0.32
2022-07-29T14:09:11.622Z,0.40
2022-07-29T14:11:39.800Z,0.45
2022-07-29T14:14:09.341Z,0.30
2022-07-29T14:16:42.558Z,0.40
2022-07-29T14:19:12.127Z,0.35
2022-07-29T14:21:40.105Z,0.50
2022-07-29T14:24:17.863Z,0.40
2022-07-29T14:26:49.680Z,0.20
2022-07-29T14:29:19.121Z,0.30
2022-07-29T14:31:47.186Z,0.30
2022-07-29T14:34:16.508Z,0.40
2022-07-29T14:36:44.460Z,0.38
2022-07-29T14:39:12.703Z,0.60
2022-07-29T14:41:40.768Z,0.60
2022-07-29T14:44:08.726Z,0.30
2022-07-29T14:46:38.061Z,0.40
2022-07-29T14:49:06.719Z,0.70
2022-07-29T14:51:37.562Z,0.40
2022-07-29T14:54:05.857Z,0.57
2022-07-29T14:56:36.897Z,0.50
2022-07-29T14:59:05.196Z,0.60
2022-07-29T15:01:33.186Z,0.50
2022-07-29T15:04:02.625Z,0.30
2022-07-29T15:06:30.593Z,0.50
2022-07-29T15:08:58.591Z,0.70
2022-07-29T15:11:26.554Z,0.40
2022-07-29T15:13:54.550Z,0.43
2022-07-29T15:16:23.291Z,0.30
2022-07-29T15:18:51.613Z,0.40
2022-07-29T15:21:21.086Z,0.43
2022-07-29T15:23:49.194Z,0.60
2022-07-29T15:26:17.281Z,0.50
2022-07-29T15:28:45.245Z,0.50
2022-07-29T15:31:13.969Z,0.63
2022-07-29T15:33:42.108Z,0.40
2022-07-29T15:36:11.706Z,0.52
2022-07-29T15:38:41.860Z,0.30
2022-07-29T15:41:10.405Z,0.60
2022-07-29T15:43:38.375Z,0.43
2022-07-29T15:46:23.809Z,0.60
2022-07-29T15:48:51.953Z,0.50
2022-07-29T15:51:20.084Z,0.68
2022-07-29T15:53:53.551Z,0.40
2022-07-29T15:56:21.855Z,0.60
2022-07-29T15:58:49.992Z,0.43
2022-07-29T16:01:18.001Z,0.60
2022-07-29T16:03:46.486Z,0.70
2022-07-29T16:06:14.731Z,0.52
2022-07-29T16:08:42.996Z,0.60
2022-07-29T16:11:12.351Z,0.50
2022-07-29T16:13:40.499Z,0.50
2022-07-29T16:16:08.909Z,0.60
2022-07-29T16:18:36.940Z,0.60
2022-07-29T16:21:05.031Z,0.60
2022-07-29T16:23:33.340Z,0.63
2022-07-29T16:26:01.678Z,0.90
2022-07-29T16:28:31.659Z,1.20
2022-07-29T16:30:59.782Z,0.80
2022-07-29T16:33:28.367Z,0.80
2022-07-29T16:36:18.505Z,0.70
2022-07-29T16:38:47.602Z,0.60
2022-07-29T16:41:15.754Z,0.65
2022-07-29T16:43:45.213Z,0.50
2022-07-29T16:46:18.414Z,0.73
2022-07-29T16:48:47.583Z,0.60
2022-07-29T16:51:16.665Z,0.70
2022-07-29T16:53:44.971Z,0.60
2022-07-29T16:56:13.231Z,0.73
2022-07-29T16:58:43.882Z,0.60
2022-07-29T17:01:13.624Z,0.60
2022-07-29T17:04:01.760Z,0.50
2022-07-29T17:06:29.964Z,0.77
2022-07-29T17:08:58.130Z,0.82
2022-07-29T17:11:51.949Z,1.02
2022-07-29T17:14:14.150Z,0.68
2022-07-29T17:16:43.594Z,0.80
2022-07-29T17:19:27.247Z,0.82
2022-07-29T17:22:03.333Z,0.82
2022-07-29T17:24:35.037Z,0.90
2022-07-29T17:27:03.158Z,1.33
2022-07-29T17:29:31.282Z,0.82
2022-07-29T17:32:00.632Z,0.80
2022-07-29T17:34:28.585Z,0.90
2022-07-29T17:36:58.029Z,0.60
2022-07-29T17:39:26.121Z,0.63
2022-07-29T17:41:54.131Z,0.50
2022-07-29T17:44:22.129Z,0.60
2022-07-29T17:46:50.172Z,0.50
2022-07-29T17:49:21.205Z,0.57
2022-07-29T17:51:49.201Z,0.40
2022-07-29T17:54:17.274Z,0.40
2022-07-29T17:56:45.343Z,0.50
2022-07-29T17:59:14.427Z,0.47
2022-07-29T18:01:42.484Z,0.40
2022-07-29T18:04:11.368Z,0.38
2022-07-29T18:06:40.743Z,0.50
2022-07-29T18:09:08.720Z,0.55
2022-07-29T18:11:36.794Z,0.30
2022-07-29T18:14:07.041Z,0.50
2022-07-29T18:16:35.075Z,0.40
2022-07-29T18:19:03.107Z,0.40
2022-07-29T18:21:50.992Z,0.45
2022-07-29T18:24:20.541Z,0.50
2022-07-29T18:26:48.499Z,0.47
2022-07-29T18:29:16.541Z,0.30
2022-07-29T18:31:44.545Z,0.45
2022-07-29T18:34:12.566Z,0.40
2022-07-29T18:36:40.509Z,0.50
2022-07-29T18:39:08.529Z,0.50
2022-07-29T18:41:49.960Z,0.50
2022-07-29T18:44:19.157Z,0.38
2022-07-29T18:46:48.002Z,0.40
2022-07-29T18:49:16.243Z,0.50
2022-07-29T18:51:44.510Z,1.52
2022-07-29T18:54:12.510Z,0.80
2022-07-29T18:56:42.101Z,0.70
2022-07-29T18:59:10.649Z,0.63
2022-07-29T19:01:39.096Z,0.60
2022-07-29T19:04:07.433Z,0.57
2022-07-29T19:06:35.488Z,0.60
2022-07-29T19:09:03.553Z,0.45
2022-07-29T19:11:31.630Z,0.40
2022-07-29T19:14:01.238Z,0.47
2022-07-29T19:16:29.447Z,0.47
2022-07-29T19:18:57.955Z,0.50
2022-07-29T19:21:26.006Z,0.40
2022-07-29T19:24:00.421Z,0.38
2022-07-29T19:26:39.326Z,0.60
2022-07-29T19:29:08.726Z,0.40
2022-07-29T19:31:36.734Z,0.40
2022-07-29T19:34:04.881Z,0.60
2022-07-29T19:36:32.931Z,0.40
2022-07-29T19:39:01.098Z,0.50
2022-07-29T19:41:29.518Z,1.17
2022-07-29T19:43:57.686Z,3.78
2022-07-29T19:46:29.096Z,1.27
2022-07-29T19:48:57.646Z,1.10
2022-07-29T19:51:25.762Z,0.75
2022-07-29T19:53:53.850Z,0.60
2022-07-29T19:56:21.807Z,0.70
2022-07-29T19:58:52.118Z,0.70
2022-07-29T20:01:21.037Z,0.60
2022-07-29T20:03:50.498Z,0.90
2022-07-29T20:06:18.509Z,0.90
2022-07-29T20:08:46.585Z,0.70
2022-07-29T20:11:14.565Z,0.55
2022-07-29T20:13:42.589Z,0.40
2022-07-29T20:16:10.559Z,0.60
2022-07-29T20:18:38.723Z,0.52
2022-07-29T20:21:08.080Z,0.60
2022-07-29T20:23:36.093Z,0.70
2022-07-29T20:26:08.671Z,0.30
2022-07-29T20:28:40.195Z,0.45
2022-07-29T20:31:08.771Z,0.45
2022-07-29T20:33:36.849Z,0.43
2022-07-29T20:36:05.503Z,0.50
2022-07-29T20:38:34.849Z,1.10
2022-07-29T20:41:02.942Z,0.50
2022-07-29T20:43:31.009Z,0.40
2022-07-29T20:46:05.002Z,0.50
2022-07-29T20:48:33.123Z,0.30
2022-07-29T20:51:01.106Z,0.30
2022-07-29T20:53:29.298Z,0.28
2022-07-29T20:55:58.667Z,0.45
2022-07-29T20:58:26.925Z,0.60
2022-07-29T21:00:54.986Z,0.57
2022-07-29T21:03:23.090Z,0.60
2022-07-29T21:05:51.527Z,0.47
2022-07-29T21:08:19.772Z,0.50
2022-07-29T21:10:47.764Z,0.60
2022-07-29T21:13:17.349Z,0.50
2022-07-29T21:15:48.545Z,0.47
2022-07-29T21:18:27.242Z,0.70
2022-07-29T21:20:55.409Z,0.50
2022-07-29T21:23:23.398Z,0.43
2022-07-29T21:25:51.477Z,0.40
2022-07-29T21:28:30.894Z,0.50
2022-07-29T21:31:01.493Z,0.40
2022-07-29T21:33:31.761Z,0.50
2022-07-29T21:36:42.358Z,0.60
2022-07-29T21:38:48.464Z,0.40
2022-07-29T21:41:16.433Z,0.65
2022-07-29T21:43:46.168Z,0.47
2022-07-29T21:46:16.507Z,0.60
2022-07-29T21:48:44.845Z,0.50
2022-07-29T21:51:12.963Z,0.40
2022-07-29T21:53:41.013Z,0.60
2022-07-29T21:56:09.449Z,0.40
2022-07-29T21:58:43.333Z,0.43
2022-07-29T22:01:12.760Z,0.45
2022-07-29T22:03:40.880Z,0.65
2022-07-29T22:06:08.980Z,0.60
2022-07-29T22:08:45.613Z,0.40
2022-07-29T22:11:13.667Z,0.50
2022-07-29T22:13:41.743Z,0.47
2022-07-29T22:16:10.258Z,0.50
2022-07-29T22:18:39.593Z,0.50
2022-07-29T22:21:07.913Z,0.57
2022-07-29T22:23:35.914Z,0.70
2022-07-29T22:26:04.269Z,0.60
2022-07-29T22:28:32.290Z,0.52
2022-07-29T22:31:00.333Z,0.80
2022-07-29T22:33:28.844Z,11.20
2022-07-29T22:35:58.193Z,24.90
2022-07-29T22:38:26.266Z,25.50
2022-07-29T22:40:54.198Z,23.40
2022-07-29T22:43:28.717Z,16.08
2022-07-29T22:45:56.816Z,11.55
2022-07-29T22:48:24.834Z,9.63
2022-07-29T22:50:52.778Z,11.77
2022-07-29T22:53:22.317Z,9.80
2022-07-29T22:55:50.461Z,8.10
2022-07-29T22:58:18.518Z,6.88
2022-07-29T23:00:46.464Z,6.70
2022-07-29T23:03:14.528Z,6.57
2022-07-29T23:05:42.544Z,5.60
2022-07-29T23:08:10.545Z,5.10
2022-07-29T23:10:39.979Z,4.22
2022-07-29T23:13:09.241Z,3.88
2022-07-29T23:15:37.314Z,3.25
2022-07-29T23:18:05.456Z,3.47
2022-07-29T23:20:33.693Z,3.10
2022-07-29T23:23:01.817Z,2.88
2022-07-29T23:25:29.825Z,6.05
2022-07-29T23:27:59.251Z,3.50
2022-07-29T23:30:27.730Z,3.13
2022-07-29T23:32:56.317Z,2.85
2022-07-29T23:35:24.632Z,2.25
2022-07-29T23:37:52.621Z,2.25
2022-07-29T23:40:20.811Z,2.20
2022-07-29T23:42:48.817Z,2.28
2022-07-29T23:45:18.379Z,2.17
2022-07-29T23:47:46.845Z,2.00
2022-07-29T23:50:16.792Z,2.15
2022-07-29T23:52:45.214Z,1.55
2022-07-29T23:55:36.983Z,1.60
2022-07-29T23:58:03.033Z,1.50
